sensor_id;sensor_type;location;lat;lon;timestamp;pressure;altitude;pressure_sealevel;temperature;humidity
70103;BME280;57470;50.034;15.256;2022-09-09T00:02:23;99117.97;;;15.80;94.35
70103;BME280;57470;50.034;15.256;2022-09-09T00:05:08;99118.03;;;15.70;94.81
70103;BME280;57470;50.034;15.256;2022-09-09T00:07:43;99114.34;;;15.71;94.05
70103;BME280;57470;50.034;15.256;2022-09-09T00:12:57;99120.88;;;15.30;95.03
70103;BME280;57470;50.034;15.256;2022-09-09T00:15:39;99114.16;;;15.26;95.83
70103;BME280;57470;50.034;15.256;2022-09-09T00:21:23;99116.13;;;14.95;97.59
70103;BME280;57470;50.034;15.256;2022-09-09T00:23:54;99122.19;;;15.17;97.42
70103;BME280;57470;50.034;15.256;2022-09-09T00:30:14;99115.59;;;14.82;97.01
70103;BME280;57470;50.034;15.256;2022-09-09T00:32:17;99115.72;;;14.71;97.86
70103;BME280;57470;50.034;15.256;2022-09-09T00:35:01;99130.75;;;14.43;99.55
70103;BME280;57470;50.034;15.256;2022-09-09T00:37:28;99126.41;;;14.12;100.00
70103;BME280;57470;50.034;15.256;2022-09-09T00:39:59;99129.97;;;14.32;99.49
70103;BME280;57470;50.034;15.256;2022-09-09T00:42:36;99123.13;;;14.39;98.38
70103;BME280;57470;50.034;15.256;2022-09-09T00:47:49;99128.81;;;14.64;96.74
70103;BME280;57470;50.034;15.256;2022-09-09T00:53:36;99140.22;;;14.67;96.59
70103;BME280;57470;50.034;15.256;2022-09-09T00:56:17;99142.59;;;14.60;96.51
70103;BME280;57470;50.034;15.256;2022-09-09T01:01:18;99144.03;;;14.64;96.51
70103;BME280;57470;50.034;15.256;2022-09-09T01:03:53;99146.56;;;14.66;96.60
70103;BME280;57470;50.034;15.256;2022-09-09T01:17:04;99155.66;;;14.44;98.84
70103;BME280;57470;50.034;15.256;2022-09-09T01:20:13;99159.72;;;14.38;98.37
70103;BME280;57470;50.034;15.256;2022-09-09T01:25:21;99158.41;;;14.33;99.37
70103;BME280;57470;50.034;15.256;2022-09-09T01:28:00;99163.38;;;14.37;99.26
70103;BME280;57470;50.034;15.256;2022-09-09T01:30:28;99158.88;;;14.38;98.37
70103;BME280;57470;50.034;15.256;2022-09-09T01:32:56;99161.69;;;14.36;98.46
70103;BME280;57470;50.034;15.256;2022-09-09T01:35:52;99163.00;;;14.11;98.01
70103;BME280;57470;50.034;15.256;2022-09-09T01:38:23;99156.47;;;14.35;98.15
70103;BME280;57470;50.034;15.256;2022-09-09T01:40:51;99149.00;;;14.28;97.77
70103;BME280;57470;50.034;15.256;2022-09-09T01:43:20;99148.28;;;14.26;97.36
70103;BME280;57470;50.034;15.256;2022-09-09T01:45:49;99148.50;;;14.04;98.94
70103;BME280;57470;50.034;15.256;2022-09-09T01:48:21;99143.63;;;14.28;98.79
70103;BME280;57470;50.034;15.256;2022-09-09T01:50:48;99145.19;;;13.91;99.79
70103;BME280;57470;50.034;15.256;2022-09-09T01:53:16;99140.66;;;14.22;99.24
70103;BME280;57470;50.034;15.256;2022-09-09T02:02:03;99150.53;;;14.21;98.46
70103;BME280;57470;50.034;15.256;2022-09-09T02:04:47;99144.25;;;14.02;98.07
70103;BME280;57470;50.034;15.256;2022-09-09T02:10:02;99138.94;;;14.11;98.14
70103;BME280;57470;50.034;15.256;2022-09-09T02:12:31;99139.06;;;14.10;98.00
70103;BME280;57470;50.034;15.256;2022-09-09T02:15:05;99145.13;;;14.12;97.66
70103;BME280;57470;50.034;15.256;2022-09-09T02:17:36;99147.13;;;13.89;97.56
70103;BME280;57470;50.034;15.256;2022-09-09T02:20:09;99145.22;;;14.01;97.85
70103;BME280;57470;50.034;15.256;2022-09-09T02:22:37;99153.53;;;14.07;98.29
70103;BME280;57470;50.034;15.256;2022-09-09T02:25:07;99140.78;;;13.80;99.57
70103;BME280;57470;50.034;15.256;2022-09-09T02:27:33;99146.97;;;14.11;98.67
70103;BME280;57470;50.034;15.256;2022-09-09T02:30:00;99149.63;;;14.11;97.37
70103;BME280;57470;50.034;15.256;2022-09-09T02:32:28;99154.81;;;14.03;97.82
70103;BME280;57470;50.034;15.256;2022-09-09T02:35:17;99152.44;;;14.10;98.14
70103;BME280;57470;50.034;15.256;2022-09-09T02:37:45;99156.84;;;14.20;98.12
70103;BME280;57470;50.034;15.256;2022-09-09T02:40:12;99161.59;;;14.17;98.10
70103;BME280;57470;50.034;15.256;2022-09-09T02:42:43;99156.50;;;14.04;99.93
70103;BME280;57470;50.034;15.256;2022-09-09T02:45:11;99162.47;;;14.17;99.61
70103;BME280;57470;50.034;15.256;2022-09-09T02:50:16;99164.13;;;14.09;97.09
70103;BME280;57470;50.034;15.256;2022-09-09T02:58:07;99163.66;;;13.94;97.63
70103;BME280;57470;50.034;15.256;2022-09-09T03:00:35;99162.19;;;13.90;98.44
70103;BME280;57470;50.034;15.256;2022-09-09T03:03:05;99157.91;;;13.78;99.06
70103;BME280;57470;50.034;15.256;2022-09-09T03:05:31;99162.66;;;13.95;98.20
70103;BME280;57470;50.034;15.256;2022-09-09T03:07:57;99163.09;;;14.00;97.20
70103;BME280;57470;50.034;15.256;2022-09-09T03:10:23;99156.31;;;13.96;97.46
70103;BME280;57470;50.034;15.256;2022-09-09T03:12:48;99164.91;;;14.00;96.03
70103;BME280;57470;50.034;15.256;2022-09-09T03:15:14;99166.41;;;13.83;96.95
70103;BME280;57470;50.034;15.256;2022-09-09T03:17:40;99163.72;;;13.83;97.11
70103;BME280;57470;50.034;15.256;2022-09-09T03:20:06;99174.41;;;13.83;96.87
70103;BME280;57470;50.034;15.256;2022-09-09T03:22:33;99172.13;;;13.78;96.61
70103;BME280;57470;50.034;15.256;2022-09-09T03:24:58;99165.38;;;13.74;97.20
70103;BME280;57470;50.034;15.256;2022-09-09T03:27:24;99168.34;;;13.81;96.88
70103;BME280;57470;50.034;15.256;2022-09-09T03:29:49;99172.13;;;13.78;97.34
70103;BME280;57470;50.034;15.256;2022-09-09T03:32:18;99170.75;;;13.84;97.11
70103;BME280;57470;50.034;15.256;2022-09-09T03:34:44;99174.16;;;13.86;96.74
70103;BME280;57470;50.034;15.256;2022-09-09T03:37:10;99177.69;;;13.96;96.88
70103;BME280;57470;50.034;15.256;2022-09-09T03:39:35;99173.56;;;13.82;97.00
70103;BME280;57470;50.034;15.256;2022-09-09T03:42:01;99172.63;;;13.93;96.63
70103;BME280;57470;50.034;15.256;2022-09-09T03:44:29;99174.00;;;13.87;96.73
70103;BME280;57470;50.034;15.256;2022-09-09T03:46:55;99171.50;;;13.86;96.71
70103;BME280;57470;50.034;15.256;2022-09-09T03:49:20;99172.47;;;13.85;96.49
70103;BME280;57470;50.034;15.256;2022-09-09T03:51:47;99168.53;;;13.89;96.37
70103;BME280;57470;50.034;15.256;2022-09-09T03:54:12;99173.88;;;13.89;96.18
70103;BME280;57470;50.034;15.256;2022-09-09T03:56:37;99168.81;;;13.86;96.13
70103;BME280;57470;50.034;15.256;2022-09-09T03:59:03;99174.16;;;13.86;95.78
70103;BME280;57470;50.034;15.256;2022-09-09T04:01:29;99174.72;;;13.89;95.36
70103;BME280;57470;50.034;15.256;2022-09-09T04:03:54;99182.75;;;13.89;95.45
70103;BME280;57470;50.034;15.256;2022-09-09T04:06:23;99175.13;;;13.85;95.07
70103;BME280;57470;50.034;15.256;2022-09-09T04:08:49;99174.66;;;13.80;94.94
70103;BME280;57470;50.034;15.256;2022-09-09T04:11:15;99181.41;;;13.74;94.79
70103;BME280;57470;50.034;15.256;2022-09-09T04:13:40;99185.91;;;13.74;95.32
70103;BME280;57470;50.034;15.256;2022-09-09T04:16:08;99193.91;;;13.74;95.26
70103;BME280;57470;50.034;15.256;2022-09-09T04:18:34;99192.63;;;13.68;95.88
70103;BME280;57470;50.034;15.256;2022-09-09T04:21:00;99188.00;;;13.49;98.02
70103;BME280;57470;50.034;15.256;2022-09-09T04:23:27;99191.19;;;13.64;97.46
70103;BME280;57470;50.034;15.256;2022-09-09T04:25:55;99182.78;;;13.69;96.72
70103;BME280;57470;50.034;15.256;2022-09-09T04:28:24;99187.66;;;13.64;97.59
70103;BME280;57470;50.034;15.256;2022-09-09T04:30:50;99181.22;;;13.66;97.58
70103;BME280;57470;50.034;15.256;2022-09-09T04:33:16;99180.63;;;13.63;96.91
70103;BME280;57470;50.034;15.256;2022-09-09T04:35:47;99178.78;;;13.63;97.99
70103;BME280;57470;50.034;15.256;2022-09-09T04:38:14;99179.72;;;13.73;97.35
70103;BME280;57470;50.034;15.256;2022-09-09T04:40:43;99186.56;;;13.66;96.46
70103;BME280;57470;50.034;15.256;2022-09-09T04:43:09;99191.69;;;13.79;96.55
70103;BME280;57470;50.034;15.256;2022-09-09T04:45:35;99189.44;;;13.53;98.65
70103;BME280;57470;50.034;15.256;2022-09-09T04:48:00;99194.97;;;13.62;99.11
70103;BME280;57470;50.034;15.256;2022-09-09T04:50:26;99198.00;;;13.78;99.44
70103;BME280;57470;50.034;15.256;2022-09-09T04:52:51;99192.06;;;13.95;99.47
70103;BME280;57470;50.034;15.256;2022-09-09T04:55:17;99188.91;;;14.11;99.00
70103;BME280;57470;50.034;15.256;2022-09-09T04:57:42;99190.38;;;13.94;99.58
70103;BME280;57470;50.034;15.256;2022-09-09T05:00:08;99187.34;;;14.08;99.76
70103;BME280;57470;50.034;15.256;2022-09-09T05:02:38;99184.06;;;14.05;100.00
70103;BME280;57470;50.034;15.256;2022-09-09T05:05:05;99187.72;;;13.73;100.00
70103;BME280;57470;50.034;15.256;2022-09-09T05:07:30;99183.09;;;14.06;100.00
70103;BME280;57470;50.034;15.256;2022-09-09T05:09:56;99179.22;;;14.19;100.00
70103;BME280;57470;50.034;15.256;2022-09-09T05:12:23;99180.34;;;14.17;100.00
70103;BME280;57470;50.034;15.256;2022-09-09T05:14:51;99189.63;;;14.13;100.00
70103;BME280;57470;50.034;15.256;2022-09-09T05:17:17;99193.84;;;14.15;100.00
70103;BME280;57470;50.034;15.256;2022-09-09T05:19:43;99195.06;;;14.02;100.00
70103;BME280;57470;50.034;15.256;2022-09-09T05:22:09;99200.00;;;14.06;100.00
70103;BME280;57470;50.034;15.256;2022-09-09T05:24:35;99197.19;;;14.38;100.00
70103;BME280;57470;50.034;15.256;2022-09-09T05:27:01;99202.16;;;14.12;100.00
70103;BME280;57470;50.034;15.256;2022-09-09T05:29:27;99204.31;;;13.98;100.00
70103;BME280;57470;50.034;15.256;2022-09-09T05:31:53;99206.66;;;14.12;100.00
70103;BME280;57470;50.034;15.256;2022-09-09T05:34:19;99211.78;;;14.55;100.00
70103;BME280;57470;50.034;15.256;2022-09-09T05:36:45;99208.41;;;14.62;100.00
70103;BME280;57470;50.034;15.256;2022-09-09T05:39:12;99213.66;;;14.83;99.35
70103;BME280;57470;50.034;15.256;2022-09-09T05:41:37;99208.81;;;14.68;99.66
70103;BME280;57470;50.034;15.256;2022-09-09T05:44:03;99216.75;;;14.88;99.13
70103;BME280;57470;50.034;15.256;2022-09-09T05:46:28;99216.72;;;14.69;98.94
70103;BME280;57470;50.034;15.256;2022-09-09T05:48:55;99206.66;;;15.01;99.48
70103;BME280;57470;50.034;15.256;2022-09-09T05:51:26;99208.28;;;14.64;99.44
70103;BME280;57470;50.034;15.256;2022-09-09T05:53:55;99200.72;;;14.98;99.78
70103;BME280;57470;50.034;15.256;2022-09-09T05:56:25;99195.06;;;14.82;99.54
70103;BME280;57470;50.034;15.256;2022-09-09T05:58:52;99197.91;;;14.99;100.00
70103;BME280;57470;50.034;15.256;2022-09-09T06:01:21;99198.75;;;15.10;99.41
70103;BME280;57470;50.034;15.256;2022-09-09T06:03:48;99201.72;;;15.26;99.31
70103;BME280;57470;50.034;15.256;2022-09-09T06:06:16;99190.41;;;15.51;98.43
70103;BME280;57470;50.034;15.256;2022-09-09T06:08:43;99187.59;;;15.62;97.89
70103;BME280;57470;50.034;15.256;2022-09-09T06:11:12;99188.31;;;15.74;96.88
70103;BME280;57470;50.034;15.256;2022-09-09T06:13:39;99196.28;;;15.84;96.85
70103;BME280;57470;50.034;15.256;2022-09-09T06:16:16;99189.66;;;15.88;96.86
70103;BME280;57470;50.034;15.256;2022-09-09T06:18:41;99203.25;;;15.67;96.87
70103;BME280;57470;50.034;15.256;2022-09-09T06:21:23;99200.41;;;15.49;97.08
70103;BME280;57470;50.034;15.256;2022-09-09T06:23:49;99201.72;;;15.45;99.06
70103;BME280;57470;50.034;15.256;2022-09-09T06:28:49;99210.75;;;15.63;99.58
70103;BME280;57470;50.034;15.256;2022-09-09T06:31:17;99206.56;;;16.07;98.51
70103;BME280;57470;50.034;15.256;2022-09-09T06:33:46;99211.97;;;15.88;98.35
70103;BME280;57470;50.034;15.256;2022-09-09T06:36:15;99219.13;;;16.44;97.77
70103;BME280;57470;50.034;15.256;2022-09-09T06:38:41;99216.72;;;16.41;96.77
70103;BME280;57470;50.034;15.256;2022-09-09T06:41:08;99222.38;;;16.75;96.81
70103;BME280;57470;50.034;15.256;2022-09-09T06:43:34;99215.75;;;17.14;96.63
70103;BME280;57470;50.034;15.256;2022-09-09T06:48:30;99212.44;;;17.20;93.04
70103;BME280;57470;50.034;15.256;2022-09-09T06:53:34;99219.22;;;17.42;93.78
70103;BME280;57470;50.034;15.256;2022-09-09T06:56:21;99224.50;;;17.70;92.74
70103;BME280;57470;50.034;15.256;2022-09-09T06:58:49;99217.38;;;17.43;91.87
70103;BME280;57470;50.034;15.256;2022-09-09T07:01:17;99211.28;;;17.58;89.65
70103;BME280;57470;50.034;15.256;2022-09-09T07:03:46;99211.72;;;17.89;90.37
70103;BME280;57470;50.034;15.256;2022-09-09T07:06:22;99215.72;;;17.85;89.36
70103;BME280;57470;50.034;15.256;2022-09-09T07:08:53;99213.88;;;17.86;89.12
70103;BME280;57470;50.034;15.256;2022-09-09T07:11:21;99215.13;;;17.99;88.55
70103;BME280;57470;50.034;15.256;2022-09-09T07:13:47;99210.97;;;18.05;88.50
70103;BME280;57470;50.034;15.256;2022-09-09T07:16:15;99221.59;;;18.07;87.53
70103;BME280;57470;50.034;15.256;2022-09-09T07:18:41;99220.03;;;18.64;88.12
70103;BME280;57470;50.034;15.256;2022-09-09T07:21:08;99227.69;;;18.85;86.47
70103;BME280;57470;50.034;15.256;2022-09-09T07:23:34;99226.72;;;18.52;87.71
70103;BME280;57470;50.034;15.256;2022-09-09T07:26:01;99230.94;;;18.96;87.37
70103;BME280;57470;50.034;15.256;2022-09-09T07:28:27;99221.38;;;18.60;88.74
70103;BME280;57470;50.034;15.256;2022-09-09T07:30:55;99231.41;;;18.50;87.69
70103;BME280;57470;50.034;15.256;2022-09-09T07:33:21;99227.31;;;19.30;86.22
70103;BME280;57470;50.034;15.256;2022-09-09T07:35:47;99227.09;;;19.15;86.66
70103;BME280;57470;50.034;15.256;2022-09-09T07:38:12;99221.38;;;19.26;87.25
70103;BME280;57470;50.034;15.256;2022-09-09T07:40:37;99213.47;;;19.25;84.33
70103;BME280;57470;50.034;15.256;2022-09-09T07:43:03;99222.47;;;19.50;84.48
70103;BME280;57470;50.034;15.256;2022-09-09T07:45:29;99222.78;;;19.63;84.24
70103;BME280;57470;50.034;15.256;2022-09-09T07:47:57;99226.50;;;19.94;82.64
70103;BME280;57470;50.034;15.256;2022-09-09T07:50:23;99210.78;;;19.98;81.81
70103;BME280;57470;50.034;15.256;2022-09-09T07:52:51;99217.56;;;19.94;80.88
70103;BME280;57470;50.034;15.256;2022-09-09T07:55:16;99221.13;;;19.86;82.29
70103;BME280;57470;50.034;15.256;2022-09-09T07:57:42;99225.16;;;19.74;81.16
70103;BME280;57470;50.034;15.256;2022-09-09T08:00:07;99216.69;;;20.09;81.73
70103;BME280;57470;50.034;15.256;2022-09-09T08:02:33;99220.03;;;20.19;80.80
70103;BME280;57470;50.034;15.256;2022-09-09T08:04:58;99224.44;;;20.12;80.89
70103;BME280;57470;50.034;15.256;2022-09-09T08:07:24;99231.53;;;20.21;82.08
70103;BME280;57470;50.034;15.256;2022-09-09T08:09:49;99224.25;;;20.30;80.13
70103;BME280;57470;50.034;15.256;2022-09-09T08:12:15;99219.94;;;20.60;79.58
70103;BME280;57470;50.034;15.256;2022-09-09T08:14:41;99222.84;;;20.50;79.46
70103;BME280;57470;50.034;15.256;2022-09-09T08:17:07;99224.38;;;20.45;78.16
70103;BME280;57470;50.034;15.256;2022-09-09T08:19:33;99232.41;;;21.00;77.95
70103;BME280;57470;50.034;15.256;2022-09-09T08:22:01;99233.19;;;20.78;79.72
70103;BME280;57470;50.034;15.256;2022-09-09T08:24:28;99226.06;;;20.46;80.13
70103;BME280;57470;50.034;15.256;2022-09-09T08:26:54;99228.03;;;20.60;79.09
70103;BME280;57470;50.034;15.256;2022-09-09T08:29:22;99231.28;;;20.55;80.16
70103;BME280;57470;50.034;15.256;2022-09-09T08:31:49;99227.19;;;20.98;78.51
70103;BME280;57470;50.034;15.256;2022-09-09T08:34:15;99223.91;;;20.80;80.44
70103;BME280;57470;50.034;15.256;2022-09-09T08:36:44;99228.19;;;20.67;79.34
70103;BME280;57470;50.034;15.256;2022-09-09T08:39:12;99237.66;;;21.02;79.89
70103;BME280;57470;50.034;15.256;2022-09-09T08:52:55;99249.25;;;21.41;76.81
70103;BME280;57470;50.034;15.256;2022-09-09T08:57:52;99238.44;;;21.64;78.10
70103;BME280;57470;50.034;15.256;2022-09-09T09:00:19;99240.25;;;21.71;75.43
70103;BME280;57470;50.034;15.256;2022-09-09T09:05:28;99234.34;;;21.91;77.79
70103;BME280;57470;50.034;15.256;2022-09-09T09:10:46;99229.94;;;22.27;73.26
70103;BME280;57470;50.034;15.256;2022-09-09T09:13:15;99227.03;;;22.29;72.35
70103;BME280;57470;50.034;15.256;2022-09-09T09:15:44;99226.25;;;22.20;71.32
70103;BME280;57470;50.034;15.256;2022-09-09T09:18:12;99229.28;;;22.55;71.16
70103;BME280;57470;50.034;15.256;2022-09-09T09:23:13;99214.97;;;22.61;73.00
70103;BME280;57470;50.034;15.256;2022-09-09T09:25:41;99213.91;;;22.91;70.68
70103;BME280;57470;50.034;15.256;2022-09-09T09:28:16;99212.56;;;22.80;72.52
70103;BME280;57470;50.034;15.256;2022-09-09T09:30:58;99208.59;;;22.83;74.85
70103;BME280;57470;50.034;15.256;2022-09-09T09:33:43;99207.94;;;22.96;71.81
70103;BME280;57470;50.034;15.256;2022-09-09T09:36:12;99203.06;;;23.27;70.69
70103;BME280;57470;50.034;15.256;2022-09-09T09:39:00;99207.94;;;22.96;69.23
70103;BME280;57470;50.034;15.256;2022-09-09T09:41:36;99207.97;;;22.81;69.40
70103;BME280;57470;50.034;15.256;2022-09-09T09:44:04;99207.50;;;22.77;69.31
70103;BME280;57470;50.034;15.256;2022-09-09T09:46:32;99207.94;;;22.96;69.68
70103;BME280;57470;50.034;15.256;2022-09-09T09:49:05;99206.63;;;23.28;69.50
70103;BME280;57470;50.034;15.256;2022-09-09T09:51:32;99203.78;;;23.36;67.51
70103;BME280;57470;50.034;15.256;2022-09-09T09:54:13;99199.69;;;23.89;69.45
70103;BME280;57470;50.034;15.256;2022-09-09T09:56:44;99198.47;;;23.91;67.14
70103;BME280;57470;50.034;15.256;2022-09-09T09:59:34;99188.91;;;23.96;69.08
70103;BME280;57470;50.034;15.256;2022-09-09T10:04:38;99182.69;;;23.52;66.89
70103;BME280;57470;50.034;15.256;2022-09-09T10:07:18;99182.91;;;23.79;64.78
70103;BME280;57470;50.034;15.256;2022-09-09T10:09:44;99191.91;;;23.79;65.83
70103;BME280;57470;50.034;15.256;2022-09-09T10:12:30;99185.94;;;23.48;69.39
70103;BME280;57470;50.034;15.256;2022-09-09T10:15:14;99184.69;;;23.93;68.00
70103;BME280;57470;50.034;15.256;2022-09-09T10:26:20;99181.41;;;23.98;65.15
70103;BME280;57470;50.034;15.256;2022-09-09T10:37:34;99171.75;;;24.64;64.44
70103;BME280;57470;50.034;15.256;2022-09-09T10:42:45;99173.63;;;25.04;63.22
70103;BME280;57470;50.034;15.256;2022-09-09T10:45:49;99172.78;;;25.04;64.00
70103;BME280;57470;50.034;15.256;2022-09-09T10:51:10;99161.19;;;24.07;64.72
70103;BME280;57470;50.034;15.256;2022-09-09T10:54:07;99157.53;;;24.21;65.30
70103;BME280;57470;50.034;15.256;2022-09-09T10:56:37;99156.25;;;25.12;62.58
70103;BME280;57470;50.034;15.256;2022-09-09T10:59:12;99155.03;;;24.60;63.44
70103;BME280;57470;50.034;15.256;2022-09-09T11:01:43;99157.78;;;23.70;63.87
70103;BME280;57470;50.034;15.256;2022-09-09T11:04:17;99156.78;;;24.06;63.70
70103;BME280;57470;50.034;15.256;2022-09-09T11:06:48;99146.78;;;24.13;63.60
70103;BME280;57470;50.034;15.256;2022-09-09T11:09:21;99166.41;;;24.43;61.10
70103;BME280;57470;50.034;15.256;2022-09-09T11:11:50;99160.31;;;24.34;62.19
70103;BME280;57470;50.034;15.256;2022-09-09T11:16:53;99151.47;;;24.60;59.08
70103;BME280;57470;50.034;15.256;2022-09-09T11:19:34;99146.56;;;24.96;58.42
70103;BME280;57470;50.034;15.256;2022-09-09T11:22:15;99152.31;;;24.67;58.72
70103;BME280;57470;50.034;15.256;2022-09-09T11:27:26;99144.84;;;24.89;58.53
70103;BME280;57470;50.034;15.256;2022-09-09T11:30:14;99151.47;;;25.27;59.57
70103;BME280;57470;50.034;15.256;2022-09-09T11:33:44;99151.41;;;24.53;59.33
70103;BME280;57470;50.034;15.256;2022-09-09T11:38:45;99140.13;;;25.17;59.29
70103;BME280;57470;50.034;15.256;2022-09-09T11:41:13;99133.41;;;25.00;55.96
70103;BME280;57470;50.034;15.256;2022-09-09T11:43:44;99139.50;;;25.09;59.22
70103;BME280;57470;50.034;15.256;2022-09-09T11:46:12;99152.53;;;24.24;57.49
70103;BME280;57470;50.034;15.256;2022-09-09T11:48:45;99146.88;;;24.26;58.55
70103;BME280;57470;50.034;15.256;2022-09-09T11:53:59;99125.13;;;24.60;58.23
70103;BME280;57470;50.034;15.256;2022-09-09T11:56:31;99127.47;;;24.29;58.33
70103;BME280;57470;50.034;15.256;2022-09-09T12:01:36;99125.50;;;25.25;55.70
70103;BME280;57470;50.034;15.256;2022-09-09T12:06:46;99126.91;;;24.40;56.87
70103;BME280;57470;50.034;15.256;2022-09-09T12:11:48;99140.13;;;24.50;56.43
70103;BME280;57470;50.034;15.256;2022-09-09T12:14:22;99130.78;;;24.79;57.02
70103;BME280;57470;50.034;15.256;2022-09-09T12:16:48;99136.94;;;24.40;56.80
70103;BME280;57470;50.034;15.256;2022-09-09T12:19:14;99132.94;;;24.90;54.10
70103;BME280;57470;50.034;15.256;2022-09-09T12:21:48;99129.75;;;24.80;57.23
70103;BME280;57470;50.034;15.256;2022-09-09T12:24:26;99127.97;;;24.52;55.70
70103;BME280;57470;50.034;15.256;2022-09-09T12:29:37;99131.97;;;24.56;54.88
70103;BME280;57470;50.034;15.256;2022-09-09T12:32:10;99122.34;;;24.54;56.53
70103;BME280;57470;50.034;15.256;2022-09-09T12:40:19;99106.03;;;24.13;57.51
70103;BME280;57470;50.034;15.256;2022-09-09T12:42:45;99111.97;;;24.23;59.03
70103;BME280;57470;50.034;15.256;2022-09-09T12:45:25;99105.84;;;24.14;59.04
70103;BME280;57470;50.034;15.256;2022-09-09T12:48:05;99108.91;;;24.05;58.88
70103;BME280;57470;50.034;15.256;2022-09-09T12:50:44;99107.50;;;24.15;57.46
70103;BME280;57470;50.034;15.256;2022-09-09T12:53:23;99102.63;;;24.04;57.75
70103;BME280;57470;50.034;15.256;2022-09-09T12:55:58;99102.28;;;24.55;56.77
70103;BME280;57470;50.034;15.256;2022-09-09T12:58:25;99106.50;;;24.64;56.40
70103;BME280;57470;50.034;15.256;2022-09-09T13:00:55;99102.28;;;24.61;56.72
70103;BME280;57470;50.034;15.256;2022-09-09T13:03:21;99117.47;;;24.36;56.90
70103;BME280;57470;50.034;15.256;2022-09-09T13:05:48;99107.84;;;24.34;56.61
70103;BME280;57470;50.034;15.256;2022-09-09T13:08:15;99114.22;;;24.19;58.67
70103;BME280;57470;50.034;15.256;2022-09-09T13:10:50;99107.88;;;24.47;56.92
70103;BME280;57470;50.034;15.256;2022-09-09T13:13:31;99111.34;;;24.75;55.80
70103;BME280;57470;50.034;15.256;2022-09-09T13:16:01;99111.53;;;24.74;56.13
70103;BME280;57470;50.034;15.256;2022-09-09T13:18:40;99119.50;;;24.75;55.95
70103;BME280;57470;50.034;15.256;2022-09-09T13:21:06;99115.28;;;24.59;57.82
70103;BME280;57470;50.034;15.256;2022-09-09T13:23:36;99108.91;;;25.07;52.68
70103;BME280;57470;50.034;15.256;2022-09-09T13:26:20;99111.94;;;24.71;55.63
70103;BME280;57470;50.034;15.256;2022-09-09T13:28:49;99106.34;;;24.85;57.32
70103;BME280;57470;50.034;15.256;2022-09-09T13:31:21;99100.56;;;24.47;56.62
70103;BME280;57470;50.034;15.256;2022-09-09T13:33:47;99098.13;;;24.59;55.41
70103;BME280;57470;50.034;15.256;2022-09-09T13:36:13;99100.16;;;25.11;55.00
70103;BME280;57470;50.034;15.256;2022-09-09T13:41:20;99097.63;;;24.08;55.89
70103;BME280;57470;50.034;15.256;2022-09-09T13:43:47;99094.81;;;23.60;57.01
70103;BME280;57470;50.034;15.256;2022-09-09T13:46:38;99094.97;;;23.80;54.51
70103;BME280;57470;50.034;15.256;2022-09-09T13:51:38;99091.78;;;24.11;56.42
70103;BME280;57470;50.034;15.256;2022-09-09T13:54:05;99105.34;;;23.70;54.08
70103;BME280;57470;50.034;15.256;2022-09-09T13:56:35;99105.38;;;23.76;54.61
70103;BME280;57470;50.034;15.256;2022-09-09T13:59:02;99120.63;;;23.77;55.39
70103;BME280;57470;50.034;15.256;2022-09-09T14:01:27;99108.31;;;23.81;55.37
70103;BME280;57470;50.034;15.256;2022-09-09T14:03:53;99110.69;;;23.63;56.99
70103;BME280;57470;50.034;15.256;2022-09-09T14:06:19;99110.25;;;23.38;58.25
70103;BME280;57470;50.034;15.256;2022-09-09T14:08:47;99108.56;;;23.52;57.91
70103;BME280;57470;50.034;15.256;2022-09-09T14:11:14;99110.22;;;23.32;58.81
70103;BME280;57470;50.034;15.256;2022-09-09T14:13:39;99106.72;;;23.59;55.78
70103;BME280;57470;50.034;15.256;2022-09-09T14:16:05;99106.06;;;23.57;55.61
70103;BME280;57470;50.034;15.256;2022-09-09T14:18:30;99114.59;;;23.54;56.84
70103;BME280;57470;50.034;15.256;2022-09-09T14:20:56;99118.97;;;23.76;56.53
70103;BME280;57470;50.034;15.256;2022-09-09T14:23:24;99113.16;;;23.37;58.01
70103;BME280;57470;50.034;15.256;2022-09-09T14:25:50;99107.50;;;23.32;56.94
70103;BME280;57470;50.034;15.256;2022-09-09T14:28:15;99110.25;;;23.38;56.93
70103;BME280;57470;50.034;15.256;2022-09-09T14:30:42;99116.06;;;22.71;57.38
70103;BME280;57470;50.034;15.256;2022-09-09T14:33:11;99112.03;;;23.25;56.41
70103;BME280;57470;50.034;15.256;2022-09-09T14:35:37;99118.88;;;23.42;57.06
70103;BME280;57470;50.034;15.256;2022-09-09T14:38:04;99109.59;;;23.08;58.11
70103;BME280;57470;50.034;15.256;2022-09-09T14:40:29;99113.59;;;23.12;56.71
70103;BME280;57470;50.034;15.256;2022-09-09T14:42:55;99092.06;;;23.11;58.27
70103;BME280;57470;50.034;15.256;2022-09-09T14:45:22;99107.38;;;22.97;55.38
70103;BME280;57470;50.034;15.256;2022-09-09T14:47:50;99096.22;;;23.07;55.45
70103;BME280;57470;50.034;15.256;2022-09-09T14:50:16;99098.41;;;22.97;56.00
70103;BME280;57470;50.034;15.256;2022-09-09T14:52:41;99097.69;;;22.73;55.54
70103;BME280;57470;50.034;15.256;2022-09-09T14:55:07;99100.66;;;22.93;56.46
70103;BME280;57470;50.034;15.256;2022-09-09T14:57:32;99100.25;;;22.75;56.04
70103;BME280;57470;50.034;15.256;2022-09-09T15:00:00;99090.84;;;22.92;56.79
70103;BME280;57470;50.034;15.256;2022-09-09T15:02:25;99088.50;;;23.10;54.82
70103;BME280;57470;50.034;15.256;2022-09-09T15:04:50;99095.28;;;23.00;56.70
70103;BME280;57470;50.034;15.256;2022-09-09T15:07:17;99088.13;;;23.35;55.82
70103;BME280;57470;50.034;15.256;2022-09-09T15:09:44;99086.22;;;23.07;57.28
70103;BME280;57470;50.034;15.256;2022-09-09T15:12:12;99088.09;;;23.07;58.36
70103;BME280;57470;50.034;15.256;2022-09-09T15:14:39;99076.91;;;22.95;58.71
70103;BME280;57470;50.034;15.256;2022-09-09T15:17:04;99081.78;;;23.28;57.85
70103;BME280;57470;50.034;15.256;2022-09-09T15:19:29;99088.03;;;23.28;57.62